Clements, Minnesota
Current Conditions -  °F | °C
As of 12:22 AM on Friday 19 Dec 2014 (Local Time) from KRWF Reporting Station
Overcast Overcast  
Wind Chill: 15°   Ceiling: 2900
Heat Index: 24°   Visibility: 9mi
Dew Point: 20°   Wind: 8mph
Humidity: 84%   Direction: 140°SE
Pressure: 30.23"   Gusts: NA
Location:  44.38°N, 95.05°W
Report Text: KRWF 190622Z AUTO 14007KT 9SM OVC029 M04/M07 A3023 RMK AO2 T10441067
Loading
Personal Weather Stations






























Interactive Weather Map New forecast layout! Learn more

10-Day Weather Forecast

Advertisements
Track Severe Weather on mobile